createdAt,value
2023-05-12T00:00:16.578Z,7.94
2023-05-12T00:02:43.029Z,8.02
2023-05-12T00:05:10.135Z,8.01
2023-05-12T00:07:36.454Z,8.01
2023-05-12T00:10:03.237Z,7.95
2023-05-12T00:12:29.589Z,7.99
2023-05-12T00:14:56.012Z,7.96
2023-05-12T00:17:22.350Z,7.95
2023-05-12T00:19:49.428Z,7.94
2023-05-12T00:22:16.552Z,7.98
2023-05-12T00:24:42.864Z,7.94
2023-05-12T00:27:09.207Z,7.92
2023-05-12T00:29:36.135Z,7.96
2023-05-12T00:32:02.508Z,7.93
2023-05-12T00:34:28.830Z,7.95
2023-05-12T00:36:55.157Z,7.84
2023-05-12T00:39:22.375Z,7.91
2023-05-12T00:41:53.499Z,7.86
2023-05-12T00:44:19.761Z,7.85
2023-05-12T00:46:46.097Z,7.86
2023-05-12T00:49:13.167Z,7.87
2023-05-12T00:51:40.070Z,7.87
2023-05-12T00:54:06.530Z,7.86
2023-05-12T00:56:38.465Z,7.87
2023-05-12T00:59:05.149Z,7.84
2023-05-12T01:01:31.784Z,7.88
2023-05-12T01:03:58.602Z,7.86
2023-05-12T01:06:29.429Z,7.87
2023-05-12T01:08:57.355Z,7.88
2023-05-12T01:11:23.686Z,7.86
2023-05-12T01:13:50.666Z,7.87
2023-05-12T01:16:22.938Z,7.92
2023-05-12T01:18:52.528Z,7.89
2023-05-12T01:21:19.860Z,7.84
2023-05-12T01:23:51.644Z,7.86
2023-05-12T01:26:18.766Z,7.86
2023-05-12T01:28:46.529Z,7.87
2023-05-12T01:31:14.109Z,7.90
2023-05-12T01:33:42.076Z,7.88
2023-05-12T01:36:08.618Z,7.89
2023-05-12T01:38:35.194Z,7.89
2023-05-12T01:41:01.604Z,7.84
2023-05-12T01:43:28.665Z,7.85
2023-05-12T01:45:54.991Z,7.91
2023-05-12T01:48:21.319Z,7.82
2023-05-12T01:50:47.643Z,7.80
2023-05-12T01:53:13.981Z,7.78
2023-05-12T01:55:40.415Z,7.80
2023-05-12T01:58:06.836Z,7.78
2023-05-12T02:00:33.784Z,7.74
2023-05-12T02:03:00.225Z,7.76
2023-05-12T02:05:26.696Z,7.80
2023-05-12T02:07:53.068Z,7.80
2023-05-12T02:10:19.590Z,7.81
2023-05-12T02:12:46.142Z,7.82
2023-05-12T02:15:12.499Z,7.86
2023-05-12T02:17:39.511Z,7.93
2023-05-12T02:20:07.329Z,7.96
2023-05-12T02:22:33.730Z,8.00
2023-05-12T02:25:00.461Z,7.97
2023-05-12T02:27:26.921Z,7.95
2023-05-12T02:29:53.358Z,7.95
2023-05-12T02:32:19.729Z,8.00
2023-05-12T02:34:46.689Z,8.03
2023-05-12T02:37:12.984Z,8.10
2023-05-12T02:39:39.353Z,8.07
2023-05-12T02:42:06.730Z,8.11
2023-05-12T02:44:33.067Z,8.05
2023-05-12T02:46:59.390Z,8.01
2023-05-12T02:49:25.733Z,7.99
2023-05-12T02:51:54.172Z,7.96
2023-05-12T02:54:21.177Z,7.98
2023-05-12T02:56:47.526Z,7.97
2023-05-12T02:59:13.913Z,7.97
2023-05-12T03:01:40.306Z,7.92
2023-05-12T03:04:06.642Z,7.93
2023-05-12T03:06:33.030Z,7.92
2023-05-12T03:09:00.071Z,7.89
2023-05-12T03:11:26.510Z,7.94
2023-05-12T03:13:52.841Z,7.96
2023-05-12T03:16:19.889Z,7.98
2023-05-12T03:18:47.437Z,7.99
2023-05-12T03:21:13.857Z,7.93
2023-05-12T03:23:40.180Z,7.93
2023-05-12T03:26:07.160Z,7.95
2023-05-12T03:28:33.521Z,7.97
2023-05-12T03:30:59.862Z,7.94
2023-05-12T03:33:26.230Z,7.91
2023-05-12T03:35:52.628Z,7.93
2023-05-12T03:38:18.952Z,7.89
2023-05-12T03:40:45.893Z,7.84
2023-05-12T03:43:12.825Z,7.88
2023-05-12T03:45:39.169Z,7.91
2023-05-12T03:48:06.341Z,7.88
2023-05-12T03:50:35.263Z,7.89
2023-05-12T03:53:01.588Z,7.88
2023-05-12T03:55:27.895Z,7.88
2023-05-12T03:57:54.213Z,7.86
2023-05-12T04:00:21.932Z,7.89
2023-05-12T04:02:48.482Z,7.93
2023-05-12T04:05:15.489Z,7.97
2023-05-12T04:07:41.870Z,8.04
2023-05-12T04:10:08.708Z,7.99
2023-05-12T04:12:35.066Z,8.02
2023-05-12T04:15:02.005Z,8.03
2023-05-12T04:17:28.979Z,8.08
2023-05-12T04:19:55.500Z,8.09
2023-05-12T04:22:25.815Z,8.11
2023-05-12T04:24:52.335Z,8.20
2023-05-12T04:27:18.726Z,8.14
2023-05-12T04:29:45.043Z,8.22
2023-05-12T04:32:11.377Z,8.29
2023-05-12T04:34:38.374Z,8.40
2023-05-12T04:37:05.090Z,8.47
2023-05-12T04:39:31.402Z,8.45
2023-05-12T04:41:59.392Z,8.49
2023-05-12T04:44:25.696Z,8.60
2023-05-12T04:46:55.379Z,8.62
2023-05-12T04:49:21.867Z,8.57
2023-05-12T04:51:51.101Z,8.54
2023-05-12T04:54:17.418Z,8.52
2023-05-12T04:56:43.772Z,8.62
2023-05-12T04:59:10.846Z,8.65
2023-05-12T05:01:37.295Z,8.74
2023-05-12T05:04:03.764Z,8.76
2023-05-12T05:06:30.941Z,8.85
2023-05-12T05:08:58.038Z,8.79
2023-05-12T05:11:24.455Z,8.80
2023-05-12T05:13:50.787Z,8.88
2023-05-12T05:16:19.773Z,8.90
2023-05-12T05:18:46.718Z,8.95
2023-05-12T05:21:13.898Z,9.02
2023-05-12T05:23:41.029Z,8.99
2023-05-12T05:26:08.182Z,9.12
2023-05-12T05:28:34.590Z,9.21
2023-05-12T05:31:01.132Z,9.32
2023-05-12T05:33:27.493Z,9.32
2023-05-12T05:35:53.869Z,9.33
2023-05-12T05:38:20.187Z,9.29
2023-05-12T05:40:52.885Z,9.43
2023-05-12T05:43:21.026Z,9.56
2023-05-12T05:45:48.930Z,9.64
2023-05-12T05:48:15.434Z,9.70
2023-05-12T05:50:41.804Z,9.73
2023-05-12T05:53:08.119Z,9.69
2023-05-12T05:55:34.498Z,9.70
2023-05-12T05:58:00.842Z,9.97
2023-05-12T06:00:28.177Z,9.98
2023-05-12T06:02:54.523Z,10.01
2023-05-12T06:05:21.619Z,10.04
2023-05-12T06:07:48.212Z,10.03
2023-05-12T06:10:16.651Z,9.98
2023-05-12T06:12:43.040Z,10.05
2023-05-12T06:15:10.186Z,10.06
2023-05-12T06:17:38.571Z,10.04
2023-05-12T06:20:06.152Z,9.99
2023-05-12T06:22:33.946Z,10.06
2023-05-12T06:25:00.677Z,10.18
2023-05-12T06:27:27.100Z,10.13
2023-05-12T06:29:53.448Z,10.08
2023-05-12T06:32:19.827Z,10.23
2023-05-12T06:34:46.918Z,10.12
2023-05-12T06:37:13.231Z,10.12
2023-05-12T06:39:42.618Z,10.20
2023-05-12T06:42:09.247Z,10.19
2023-05-12T06:44:35.624Z,10.15
2023-05-12T06:47:02.080Z,10.16
2023-05-12T06:49:28.532Z,10.15
2023-05-12T06:51:55.555Z,10.15
2023-05-12T06:54:22.016Z,10.37
2023-05-12T06:56:48.476Z,10.56
2023-05-12T06:59:14.894Z,10.70
2023-05-12T07:01:42.305Z,10.63
2023-05-12T07:04:08.830Z,10.67
2023-05-12T07:06:35.280Z,10.73
2023-05-12T07:09:04.116Z,10.74
2023-05-12T07:11:30.564Z,10.69
2023-05-12T07:13:56.923Z,10.84
2023-05-12T07:16:23.393Z,10.96
2023-05-12T07:18:49.858Z,11.11
2023-05-12T07:21:16.269Z,11.22
2023-05-12T07:23:42.838Z,11.23
2023-05-12T07:26:10.034Z,10.92
2023-05-12T07:28:37.271Z,10.98
2023-05-12T07:31:04.173Z,11.05
2023-05-12T07:33:30.921Z,11.15
2023-05-12T07:35:57.481Z,11.18
2023-05-12T07:38:23.808Z,11.39
2023-05-12T07:40:50.920Z,11.42
2023-05-12T07:43:18.121Z,11.42
2023-05-12T07:45:44.784Z,11.55
2023-05-12T07:48:11.157Z,11.65
2023-05-12T07:50:38.056Z,11.79
2023-05-12T07:53:05.136Z,11.55
2023-05-12T07:55:32.895Z,11.38
2023-05-12T07:57:59.822Z,11.53
2023-05-12T08:00:26.973Z,11.41
2023-05-12T08:02:53.915Z,11.34
2023-05-12T08:05:20.778Z,11.35
2023-05-12T08:07:47.317Z,11.53
2023-05-12T08:10:18.539Z,12.01
2023-05-12T08:12:45.002Z,12.24
2023-05-12T08:15:14.729Z,12.37
2023-05-12T08:17:42.009Z,12.46
2023-05-12T08:20:09.423Z,12.72
2023-05-12T08:22:35.886Z,13.00
2023-05-12T08:25:02.244Z,12.78
2023-05-12T08:27:29.094Z,12.79
2023-05-12T08:29:55.409Z,12.91
2023-05-12T08:32:21.981Z,12.74
2023-05-12T08:34:49.036Z,12.38
2023-05-12T08:37:15.454Z,11.95
2023-05-12T08:39:41.835Z,11.90
2023-05-12T08:42:18.518Z,12.05
2023-05-12T08:44:46.123Z,11.80
2023-05-12T08:47:13.329Z,11.51
2023-05-12T08:49:40.156Z,11.38
2023-05-12T08:52:08.136Z,11.32
2023-05-12T08:54:45.333Z,11.27
2023-05-12T08:57:20.951Z,11.42
2023-05-12T08:59:47.573Z,11.38
2023-05-12T09:02:16.525Z,11.32
2023-05-12T09:04:43.277Z,11.34
2023-05-12T09:07:11.228Z,11.50
2023-05-12T09:09:38.126Z,11.70
2023-05-12T09:12:11.459Z,11.65
2023-05-12T09:14:40.069Z,11.65
2023-05-12T09:17:06.792Z,11.67
2023-05-12T09:19:33.742Z,11.54
2023-05-12T09:22:01.044Z,11.57
2023-05-12T09:24:35.557Z,11.74
2023-05-12T09:27:02.116Z,11.78
2023-05-12T09:29:31.796Z,11.87
2023-05-12T09:32:01.279Z,12.01
2023-05-12T09:34:28.906Z,12.20
2023-05-12T09:36:56.193Z,12.23
2023-05-12T09:39:22.566Z,12.43
2023-05-12T09:41:50.504Z,12.61
2023-05-12T09:44:19.092Z,12.80
2023-05-12T09:46:46.067Z,12.98
2023-05-12T09:49:12.514Z,13.07
2023-05-12T09:51:40.084Z,13.33
2023-05-12T09:54:07.825Z,13.31
2023-05-12T09:56:37.036Z,13.37
2023-05-12T09:59:05.218Z,13.69
2023-05-12T10:01:31.608Z,13.79
2023-05-12T10:04:01.817Z,13.56
2023-05-12T10:06:33.059Z,13.53
2023-05-12T10:09:05.954Z,13.16
2023-05-12T10:11:32.663Z,13.01
2023-05-12T10:13:59.313Z,13.06
2023-05-12T10:16:28.099Z,13.09
2023-05-12T10:18:55.249Z,13.11
2023-05-12T10:21:22.970Z,13.09
2023-05-12T10:23:50.442Z,13.10
2023-05-12T10:26:18.542Z,13.12
2023-05-12T10:28:46.961Z,13.29
2023-05-12T10:31:13.880Z,13.39
2023-05-12T10:33:40.955Z,13.40
2023-05-12T10:36:16.894Z,13.51
2023-05-12T10:38:43.229Z,13.61
2023-05-12T10:41:10.252Z,13.60
2023-05-12T10:43:43.128Z,13.87
2023-05-12T10:46:15.472Z,13.84
2023-05-12T10:48:51.694Z,14.00
2023-05-12T10:51:20.742Z,13.98
2023-05-12T10:53:54.298Z,14.16
2023-05-12T10:56:23.168Z,14.26
2023-05-12T10:59:14.449Z,14.27
2023-05-12T11:01:43.002Z,14.50
2023-05-12T11:04:12.779Z,14.31
2023-05-12T11:06:40.932Z,14.38
2023-05-12T11:09:09.024Z,14.39
2023-05-12T11:11:36.249Z,14.71
2023-05-12T11:14:02.877Z,14.98
2023-05-12T11:16:29.399Z,15.13
2023-05-12T11:19:03.387Z,15.16
2023-05-12T11:21:31.395Z,14.89
2023-05-12T11:23:58.685Z,14.23
2023-05-12T11:26:25.141Z,14.36
2023-05-12T11:28:51.570Z,14.11
2023-05-12T11:31:19.311Z,14.33
2023-05-12T11:33:45.657Z,14.17
2023-05-12T11:36:11.978Z,14.00
2023-05-12T11:38:39.082Z,14.20
2023-05-12T11:41:05.599Z,14.22
2023-05-12T11:43:31.888Z,14.15
2023-05-12T11:45:59.058Z,14.08
2023-05-12T11:48:33.095Z,14.09
2023-05-12T11:51:00.163Z,13.91
2023-05-12T11:53:27.697Z,14.02
2023-05-12T11:55:55.786Z,13.98
2023-05-12T11:58:25.958Z,13.92
2023-05-12T12:00:53.134Z,13.94
2023-05-12T12:03:19.704Z,13.91
2023-05-12T12:05:58.726Z,13.66
2023-05-12T12:08:25.057Z,13.57
2023-05-12T12:10:51.365Z,13.55
2023-05-12T12:13:20.977Z,13.74
2023-05-12T12:15:47.527Z,13.86
2023-05-12T12:18:15.079Z,14.12
2023-05-12T12:20:44.670Z,14.65
2023-05-12T12:23:13.976Z,14.73
2023-05-12T12:25:40.332Z,14.66
2023-05-12T12:28:07.473Z,15.26
2023-05-12T12:30:34.621Z,15.48
2023-05-12T12:33:00.976Z,15.65
2023-05-12T12:35:27.376Z,15.37
2023-05-12T12:37:54.660Z,15.79
2023-05-12T12:40:21.380Z,15.85
2023-05-12T12:42:47.756Z,15.86
2023-05-12T12:45:14.083Z,15.61
2023-05-12T12:47:41.103Z,15.26
2023-05-12T12:50:09.072Z,15.26
2023-05-12T12:52:36.608Z,15.07
2023-05-12T12:55:03.684Z,15.12
2023-05-12T12:57:29.985Z,15.50
2023-05-12T12:59:56.322Z,15.65
2023-05-12T13:02:22.858Z,15.55
2023-05-12T13:04:50.203Z,15.33
2023-05-12T13:07:16.581Z,15.33
2023-05-12T13:09:42.887Z,15.17
2023-05-12T13:12:09.221Z,15.55
2023-05-12T13:14:35.556Z,15.73
2023-05-12T13:17:01.999Z,16.14
2023-05-12T13:19:28.343Z,16.06
2023-05-12T13:21:55.412Z,16.12
2023-05-12T13:24:21.779Z,16.11
2023-05-12T13:26:48.170Z,16.28
2023-05-12T13:29:17.158Z,16.24
2023-05-12T13:31:45.098Z,16.22
2023-05-12T13:34:11.441Z,16.26
2023-05-12T13:36:37.780Z,16.22
2023-05-12T13:39:04.820Z,16.41
2023-05-12T13:41:31.155Z,16.14
2023-05-12T13:43:57.593Z,15.93
2023-05-12T13:46:24.297Z,15.70
2023-05-12T13:48:51.728Z,15.55
2023-05-12T13:51:18.896Z,15.27
2023-05-12T13:53:45.666Z,15.04
2023-05-12T13:56:14.296Z,15.11
2023-05-12T13:58:40.623Z,14.91
2023-05-12T14:01:08.759Z,14.93
2023-05-12T14:03:36.307Z,14.66
2023-05-12T14:06:02.721Z,14.60
2023-05-12T14:08:29.102Z,14.51
2023-05-12T14:10:56.256Z,14.38
2023-05-12T14:13:24.952Z,14.35
2023-05-12T14:15:52.028Z,14.39
2023-05-12T14:18:19.017Z,14.41
2023-05-12T14:20:46.033Z,14.38
2023-05-12T14:23:12.470Z,14.65
2023-05-12T14:25:38.905Z,14.59
2023-05-12T14:28:05.285Z,14.48
2023-05-12T14:30:34.221Z,14.67
2023-05-12T14:33:01.856Z,14.65
2023-05-12T14:35:28.214Z,14.35
2023-05-12T14:37:54.705Z,14.25
2023-05-12T14:40:21.185Z,14.08
2023-05-12T14:42:49.401Z,13.87
2023-05-12T14:45:15.986Z,13.77
2023-05-12T14:47:43.057Z,13.70
2023-05-12T14:50:10.603Z,13.53
2023-05-12T14:52:37.810Z,13.32
2023-05-12T14:55:11.127Z,13.42
2023-05-12T14:57:37.634Z,13.34
2023-05-12T15:00:06.194Z,13.24
2023-05-12T15:02:33.839Z,13.31
2023-05-12T15:05:00.951Z,13.41
2023-05-12T15:07:27.584Z,13.28
2023-05-12T15:09:54.081Z,13.45
2023-05-12T15:12:20.466Z,13.40
2023-05-12T15:14:46.904Z,13.46
2023-05-12T15:17:13.323Z,13.47
2023-05-12T15:19:39.640Z,13.31
2023-05-12T15:22:06.999Z,13.39
2023-05-12T15:24:36.190Z,13.33
2023-05-12T15:27:02.677Z,13.25
2023-05-12T15:29:30.975Z,13.07
2023-05-12T15:31:57.414Z,13.03
2023-05-12T15:34:23.956Z,12.96
2023-05-12T15:36:50.384Z,13.01
2023-05-12T15:39:17.353Z,12.94
2023-05-12T15:41:43.746Z,12.94
2023-05-12T15:44:10.082Z,13.00
2023-05-12T15:46:36.786Z,12.92
2023-05-12T15:49:06.164Z,12.73
2023-05-12T15:51:33.167Z,12.69
2023-05-12T15:53:59.529Z,12.63
2023-05-12T15:56:26.485Z,12.75
2023-05-12T15:58:53.210Z,12.57
2023-05-12T16:01:19.787Z,12.63
2023-05-12T16:03:46.296Z,12.46
2023-05-12T16:06:12.667Z,12.49
2023-05-12T16:08:38.999Z,12.39
2023-05-12T16:11:05.316Z,12.39
2023-05-12T16:13:32.311Z,12.34
2023-05-12T16:15:58.723Z,12.33
2023-05-12T16:18:25.806Z,12.30
2023-05-12T16:20:52.202Z,12.31
2023-05-12T16:23:18.518Z,12.46
2023-05-12T16:25:44.880Z,12.43
2023-05-12T16:28:11.184Z,12.50
2023-05-12T16:30:38.341Z,12.53
2023-05-12T16:33:06.291Z,12.64
2023-05-12T16:35:32.969Z,12.73
2023-05-12T16:37:59.543Z,12.64
2023-05-12T16:40:25.918Z,12.57
2023-05-12T16:42:54.046Z,12.57
2023-05-12T16:45:21.611Z,12.45
2023-05-12T16:47:48.949Z,12.50
2023-05-12T16:50:15.275Z,12.51
2023-05-12T16:52:42.026Z,12.48
2023-05-12T16:55:09.276Z,12.54
2023-05-12T16:57:35.880Z,12.54
2023-05-12T17:00:04.968Z,12.53
2023-05-12T17:02:31.501Z,12.50
2023-05-12T17:04:58.549Z,12.53
2023-05-12T17:07:24.934Z,12.54
2023-05-12T17:09:51.402Z,12.41
2023-05-12T17:12:17.912Z,12.47
2023-05-12T17:14:45.961Z,12.32
2023-05-12T17:17:16.591Z,12.22
2023-05-12T17:19:43.581Z,12.23
2023-05-12T17:22:10.628Z,12.29
2023-05-12T17:24:37.051Z,12.25
2023-05-12T17:27:03.762Z,12.24
2023-05-12T17:29:30.344Z,12.19
2023-05-12T17:31:56.771Z,12.13
2023-05-12T17:34:23.159Z,12.04
2023-05-12T17:36:49.524Z,11.95
2023-05-12T17:39:16.499Z,11.89
2023-05-12T17:41:43.607Z,11.80
2023-05-12T17:44:10.063Z,11.79
2023-05-12T17:46:36.551Z,11.71
2023-05-12T17:49:02.895Z,11.75
2023-05-12T17:51:29.823Z,11.71
2023-05-12T17:53:56.228Z,11.68
2023-05-12T17:56:23.941Z,11.64
2023-05-12T17:58:50.274Z,11.53
2023-05-12T18:01:16.619Z,11.55
2023-05-12T18:03:43.226Z,11.52
2023-05-12T18:06:12.002Z,11.48
2023-05-12T18:08:38.493Z,11.42
2023-05-12T18:11:05.022Z,11.38
2023-05-12T18:13:32.011Z,11.40
2023-05-12T18:15:58.280Z,11.31
2023-05-12T18:18:25.373Z,11.32
2023-05-12T18:20:51.788Z,11.21
2023-05-12T18:23:18.119Z,11.24
2023-05-12T18:25:44.580Z,11.12
2023-05-12T18:28:10.977Z,11.15
2023-05-12T18:30:38.276Z,11.13
2023-05-12T18:33:05.029Z,11.05
2023-05-12T18:35:31.473Z,11.10
2023-05-12T18:37:57.877Z,11.10
2023-05-12T18:40:26.176Z,10.99
2023-05-12T18:42:52.644Z,11.00
2023-05-12T18:45:19.125Z,10.98
2023-05-12T18:47:46.287Z,10.94
2023-05-12T18:50:12.677Z,10.95
2023-05-12T18:52:39.016Z,10.98
2023-05-12T18:55:06.360Z,10.87
2023-05-12T18:57:34.328Z,10.94
2023-05-12T19:00:00.707Z,10.93
2023-05-12T19:02:27.103Z,10.91
2023-05-12T19:04:54.349Z,10.88
2023-05-12T19:07:20.810Z,10.90
2023-05-12T19:09:47.297Z,10.82
2023-05-12T19:12:13.675Z,10.87
2023-05-12T19:14:40.455Z,10.81
2023-05-12T19:17:06.902Z,10.78
2023-05-12T19:19:33.318Z,10.80
2023-05-12T19:22:00.482Z,10.82
2023-05-12T19:24:26.998Z,10.82
2023-05-12T19:26:53.558Z,10.75
2023-05-12T19:29:20.586Z,10.76
2023-05-12T19:31:47.065Z,10.77
2023-05-12T19:34:13.684Z,10.79
2023-05-12T19:36:40.162Z,10.74
2023-05-12T19:39:07.243Z,10.71
2023-05-12T19:41:36.445Z,10.70
2023-05-12T19:44:03.434Z,10.73
2023-05-12T19:46:30.014Z,10.72
2023-05-12T19:48:56.454Z,10.63
2023-05-12T19:51:22.975Z,10.69
2023-05-12T19:53:49.281Z,10.64
2023-05-12T19:56:18.019Z,10.69
2023-05-12T19:58:44.520Z,10.68
2023-05-12T20:01:11.831Z,10.71
2023-05-12T20:03:38.445Z,10.67
2023-05-12T20:06:04.919Z,10.65
2023-05-12T20:08:31.413Z,10.57
2023-05-12T20:10:57.943Z,10.62
2023-05-12T20:13:25.109Z,10.60
2023-05-12T20:15:51.559Z,10.57
2023-05-12T20:18:18.092Z,10.52
2023-05-12T20:20:44.438Z,10.59
2023-05-12T20:23:10.839Z,10.45
2023-05-12T20:25:37.360Z,10.51
2023-05-12T20:28:03.907Z,10.50
2023-05-12T20:30:30.899Z,10.40
2023-05-12T20:32:57.410Z,10.39
2023-05-12T20:35:23.980Z,10.44
2023-05-12T20:37:50.577Z,10.38
2023-05-12T20:40:17.105Z,10.34
2023-05-12T20:42:45.091Z,10.34
2023-05-12T20:45:11.991Z,10.39
2023-05-12T20:47:39.312Z,10.31
2023-05-12T20:50:06.747Z,10.22
2023-05-12T20:52:33.349Z,10.23
2023-05-12T20:55:00.272Z,10.23
2023-05-12T20:57:26.965Z,10.24
2023-05-12T20:59:55.958Z,10.18
2023-05-12T21:02:22.454Z,10.18
2023-05-12T21:04:49.529Z,10.26
2023-05-12T21:07:16.190Z,10.19
2023-05-12T21:09:42.654Z,10.19
2023-05-12T21:12:09.336Z,10.16
2023-05-12T21:14:39.250Z,10.24
2023-05-12T21:17:06.580Z,10.18
2023-05-12T21:19:33.326Z,10.16
2023-05-12T21:22:00.369Z,10.12
2023-05-12T21:24:26.870Z,10.15
2023-05-12T21:26:53.192Z,10.09
2023-05-12T21:29:19.597Z,10.10
2023-05-12T21:31:47.537Z,10.12
2023-05-12T21:34:14.477Z,10.12
2023-05-12T21:36:41.203Z,10.05
2023-05-12T21:39:08.328Z,10.03
2023-05-12T21:41:34.994Z,10.02
2023-05-12T21:44:01.653Z,9.98
2023-05-12T21:46:28.105Z,9.96
2023-05-12T21:48:54.752Z,10.00
2023-05-12T21:51:21.081Z,10.14
2023-05-12T21:53:47.402Z,10.09
2023-05-12T21:56:14.491Z,10.04
2023-05-12T21:58:40.877Z,9.95
2023-05-12T22:01:07.294Z,9.93
2023-05-12T22:03:33.710Z,9.96
2023-05-12T22:06:00.029Z,9.94
2023-05-12T22:08:26.344Z,9.94
2023-05-12T22:10:52.663Z,9.92
2023-05-12T22:13:19.672Z,9.86
2023-05-12T22:15:46.043Z,9.80
2023-05-12T22:18:12.480Z,9.80
2023-05-12T22:20:39.398Z,9.78
2023-05-12T22:23:05.778Z,9.81
2023-05-12T22:25:32.121Z,9.77
2023-05-12T22:27:58.617Z,9.74
2023-05-12T22:30:25.674Z,9.71
2023-05-12T22:32:52.111Z,9.69
2023-05-12T22:35:18.652Z,9.82
2023-05-12T22:37:45.124Z,9.73
2023-05-12T22:40:11.802Z,9.79
2023-05-12T22:42:38.162Z,9.81
2023-05-12T22:45:05.362Z,9.81
2023-05-12T22:47:32.434Z,9.76
2023-05-12T22:49:59.268Z,9.81
2023-05-12T22:58:10.900Z,9.68
2023-05-12T23:00:37.348Z,9.64
2023-05-12T23:03:04.038Z,9.62
2023-05-12T23:05:30.355Z,9.65
2023-05-12T23:07:56.708Z,9.64
2023-05-12T23:10:23.328Z,9.65
2023-05-12T23:12:50.031Z,9.68
2023-05-12T23:15:17.047Z,9.67
2023-05-12T23:17:43.439Z,9.68
2023-05-12T23:20:10.467Z,9.67
2023-05-12T23:22:36.832Z,9.65
2023-05-12T23:25:03.331Z,9.64
2023-05-12T23:27:29.684Z,9.68
2023-05-12T23:29:56.026Z,9.64
2023-05-12T23:32:23.144Z,9.63
2023-05-12T23:34:49.646Z,9.62
2023-05-12T23:37:16.025Z,9.61
2023-05-12T23:39:42.429Z,9.57
2023-05-12T23:42:08.708Z,9.63
2023-05-12T23:44:34.995Z,9.64
2023-05-12T23:47:01.409Z,9.63
2023-05-12T23:49:28.488Z,9.65
2023-05-12T23:51:54.885Z,9.63
2023-05-12T23:54:21.229Z,9.64
2023-05-12T23:56:47.641Z,9.62
2023-05-12T23:59:14.029Z,9.63
